createdAt,value
2023-02-01T00:01:27.896Z,100586.67
2023-02-01T00:03:56.156Z,100589.22
2023-02-01T00:06:25.782Z,100596.87
2023-02-01T00:08:55.523Z,100598.23
2023-02-01T00:11:25.018Z,100599.48
2023-02-01T00:13:53.874Z,100606.10
2023-02-01T00:16:24.696Z,100606.52
2023-02-01T00:18:57.215Z,100613.05
2023-02-01T00:21:28.142Z,100610.70
2023-02-01T00:23:57.134Z,100611.88
2023-02-01T00:26:37.337Z,100605.78
2023-02-01T00:29:10.377Z,100603.99
2023-02-01T00:31:38.578Z,100608.67
2023-02-01T00:34:09.886Z,100612.96
2023-02-01T00:36:38.616Z,100611.63
2023-02-01T00:39:06.764Z,100609.55
2023-02-01T00:41:35.761Z,100607.77
2023-02-01T00:44:04.946Z,100608.11
2023-02-01T00:46:33.670Z,100604.09
2023-02-01T00:49:03.248Z,100606.93
2023-02-01T00:51:31.944Z,100609.88
2023-02-01T00:54:00.318Z,100604.73
2023-02-01T00:56:28.819Z,100597.11
2023-02-01T00:58:57.660Z,100587.29
2023-02-01T01:01:28.316Z,100585.02
2023-02-01T01:03:59.334Z,100584.71
2023-02-01T01:06:30.403Z,100589.02
2023-02-01T01:09:00.879Z,100586.20
2023-02-01T01:11:32.529Z,100579.35
2023-02-01T01:14:01.690Z,100575.25
2023-02-01T01:16:32.039Z,100573.05
2023-02-01T01:19:00.898Z,100575.54
2023-02-01T01:21:30.309Z,100570.98
2023-02-01T01:23:58.994Z,100569.46
2023-02-01T01:26:29.033Z,100565.31
2023-02-01T01:28:59.129Z,100568.59
2023-02-01T01:31:29.066Z,100568.52
2023-02-01T01:33:59.650Z,100566.15
2023-02-01T01:36:30.014Z,100567.60
2023-02-01T01:38:58.687Z,100572.66
2023-02-01T01:41:31.978Z,100573.98
2023-02-01T01:44:07.746Z,100570.52
2023-02-01T01:46:42.042Z,100566.93
2023-02-01T01:49:23.436Z,100575.94
2023-02-01T01:51:56.941Z,100577.09
2023-02-01T01:54:35.844Z,100576.45
2023-02-01T01:57:15.608Z,100577.63
2023-02-01T01:59:51.878Z,100581.91
2023-02-01T02:02:21.205Z,100578.97
2023-02-01T02:04:49.864Z,100576.86
2023-02-01T02:07:24.678Z,100576.36
2023-02-01T02:10:00.848Z,100571.58
2023-02-01T02:12:29.922Z,100568.77
2023-02-01T02:14:58.732Z,100571.04
2023-02-01T02:17:45.541Z,100568.73
2023-02-01T02:20:53.643Z,100567.52
2023-02-01T02:23:37.086Z,100567.02
2023-02-01T02:26:27.473Z,100561.65
2023-02-01T02:29:21.459Z,100557.44
2023-02-01T02:31:52.637Z,100555.50
2023-02-01T02:34:34.295Z,100554.55
2023-02-01T02:37:12.406Z,100556.90
2023-02-01T02:39:58.909Z,100552.92
2023-02-01T02:43:01.634Z,100557.73
2023-02-01T02:46:15.024Z,100564.80
2023-02-01T02:48:49.886Z,100568.55
2023-02-01T02:51:40.557Z,100566.16
2023-02-01T02:54:40.987Z,100566.02
2023-02-01T02:57:32.592Z,100568.10
2023-02-01T03:00:23.465Z,100559.30
2023-02-01T03:03:11.792Z,100560.11
2023-02-01T03:05:45.392Z,100565.02
2023-02-01T03:08:24.204Z,100568.83
2023-02-01T03:11:06.919Z,100569.98
2023-02-01T03:13:48.707Z,100574.25
2023-02-01T03:16:29.257Z,100578.43
2023-02-01T03:19:01.391Z,100578.46
2023-02-01T03:21:39.152Z,100575.48
2023-02-01T03:24:10.888Z,100578.06
2023-02-01T03:26:43.515Z,100581.91
2023-02-01T03:29:20.810Z,100588.81
2023-02-01T03:31:49.379Z,100583.05
2023-02-01T03:34:18.443Z,100587.64
2023-02-01T03:36:55.313Z,100588.48
2023-02-01T03:39:37.517Z,100589.24
2023-02-01T03:42:13.967Z,100583.59
2023-02-01T03:44:51.074Z,100582.05
2023-02-01T03:47:25.084Z,100579.58
2023-02-01T03:50:02.380Z,100580.25
2023-02-01T03:52:46.225Z,100578.58
2023-02-01T03:55:19.208Z,100578.77
2023-02-01T03:57:54.356Z,100581.08
2023-02-01T04:00:25.988Z,100578.20
2023-02-01T04:02:54.988Z,100574.82
2023-02-01T04:05:24.343Z,100565.98
2023-02-01T04:08:13.346Z,100563.08
2023-02-01T04:10:42.033Z,100561.53
2023-02-01T04:13:10.822Z,100563.23
2023-02-01T04:15:39.509Z,100568.23
2023-02-01T04:18:07.786Z,100569.36
2023-02-01T04:20:36.063Z,100566.52
2023-02-01T04:23:04.344Z,100562.81
2023-02-01T04:25:32.489Z,100555.05
2023-02-01T04:28:00.893Z,100552.81
2023-02-01T04:30:29.310Z,100548.93
2023-02-01T04:32:57.451Z,100554.30
2023-02-01T04:35:25.628Z,100554.10
2023-02-01T04:37:54.123Z,100555.27
2023-02-01T04:40:22.737Z,100560.67
2023-02-01T04:42:51.377Z,100565.80
2023-02-01T04:45:20.264Z,100567.47
2023-02-01T04:47:49.873Z,100567.89
2023-02-01T04:50:18.319Z,100574.86
2023-02-01T04:52:46.693Z,100567.98
2023-02-01T04:55:14.918Z,100562.70
2023-02-01T04:57:43.183Z,100564.85
2023-02-01T05:00:12.485Z,100573.25
2023-02-01T05:02:40.858Z,100567.55
2023-02-01T05:05:09.882Z,100567.86
2023-02-01T05:07:38.756Z,100575.23
2023-02-01T05:10:07.846Z,100577.75
2023-02-01T05:12:54.756Z,100577.29
2023-02-01T05:15:23.036Z,100575.52
2023-02-01T05:17:51.209Z,100573.58
2023-02-01T05:20:19.381Z,100581.92
2023-02-01T05:22:47.577Z,100593.69
2023-02-01T05:25:15.897Z,100592.42
2023-02-01T05:27:44.214Z,100594.02
2023-02-01T05:30:13.305Z,100593.16
2023-02-01T05:32:41.584Z,100592.09
2023-02-01T05:35:10.169Z,100594.27
2023-02-01T05:37:38.453Z,100586.66
2023-02-01T05:40:07.859Z,100583.46
2023-02-01T05:42:36.386Z,100574.16
2023-02-01T05:45:06.388Z,100570.04
2023-02-01T05:47:34.830Z,100572.08
2023-02-01T05:50:04.543Z,100571.71
2023-02-01T05:52:33.450Z,100570.14
2023-02-01T05:55:01.707Z,100561.41
2023-02-01T05:57:29.835Z,100562.21
2023-02-01T06:00:00.211Z,100561.01
2023-02-01T06:02:29.022Z,100561.91
2023-02-01T06:04:57.580Z,100557.77
2023-02-01T06:07:27.133Z,100562.08
2023-02-01T06:09:56.394Z,100560.23
2023-02-01T06:12:24.765Z,100562.91
2023-02-01T06:14:53.245Z,100561.40
2023-02-01T06:17:21.625Z,100557.45
2023-02-01T06:19:50.210Z,100563.42
2023-02-01T06:22:18.587Z,100567.04
2023-02-01T06:24:46.771Z,100567.41
2023-02-01T06:27:15.756Z,100565.98
2023-02-01T06:29:44.385Z,100562.34
2023-02-01T06:32:12.821Z,100565.85
2023-02-01T06:34:40.900Z,100564.30
2023-02-01T06:37:09.172Z,100562.75
2023-02-01T06:39:37.242Z,100564.52
2023-02-01T06:42:05.418Z,100566.23
2023-02-01T06:44:33.592Z,100582.73
2023-02-01T06:47:01.956Z,100600.30
2023-02-01T06:49:30.452Z,100602.11
2023-02-01T06:52:01.361Z,100600.77
2023-02-01T06:54:30.718Z,100600.02
2023-02-01T06:56:59.177Z,100597.27
2023-02-01T06:59:27.555Z,100590.44
2023-02-01T07:01:56.199Z,100578.86
2023-02-01T07:04:24.420Z,100584.05
2023-02-01T07:06:52.600Z,100588.91
2023-02-01T07:09:21.272Z,100590.48
2023-02-01T07:11:49.423Z,100595.35
2023-02-01T07:14:17.726Z,100603.01
2023-02-01T07:16:45.907Z,100608.25
2023-02-01T07:19:14.585Z,100605.41
2023-02-01T07:21:42.964Z,100608.34
2023-02-01T07:24:11.144Z,100608.69
2023-02-01T07:26:39.673Z,100603.02
2023-02-01T07:29:07.999Z,100598.55
2023-02-01T07:31:36.488Z,100595.28
2023-02-01T07:34:04.962Z,100590.32
2023-02-01T07:36:34.681Z,100590.73
2023-02-01T07:39:04.603Z,100594.33
2023-02-01T07:41:32.735Z,100589.30
2023-02-01T07:44:01.257Z,100586.64
2023-02-01T07:46:29.640Z,100592.07
2023-02-01T07:48:58.048Z,100597.44
2023-02-01T07:51:27.406Z,100596.11
2023-02-01T07:53:56.471Z,100600.14
2023-02-01T07:56:26.281Z,100605.21
2023-02-01T07:58:57.262Z,100604.48
2023-02-01T08:01:28.086Z,100605.77
2023-02-01T08:04:02.540Z,100606.86
2023-02-01T08:06:34.936Z,100614.86
2023-02-01T08:09:05.075Z,100613.02
2023-02-01T08:11:34.713Z,100618.43
2023-02-01T08:14:02.990Z,100615.65
2023-02-01T08:16:31.556Z,100618.20
2023-02-01T08:19:00.370Z,100621.23
2023-02-01T08:21:38.139Z,100621.65
2023-02-01T08:24:09.467Z,100617.21
2023-02-01T08:26:37.919Z,100615.48
2023-02-01T08:29:08.513Z,100613.00
2023-02-01T08:31:36.834Z,100618.61
2023-02-01T08:34:05.487Z,100625.75
2023-02-01T08:36:33.969Z,100622.77
2023-02-01T08:39:06.892Z,100621.27
2023-02-01T08:41:35.332Z,100619.52
2023-02-01T08:44:03.518Z,100614.34
2023-02-01T08:46:32.102Z,100616.36
2023-02-01T08:49:00.883Z,100613.09
2023-02-01T08:51:29.551Z,100612.16
2023-02-01T08:53:57.967Z,100614.46
2023-02-01T08:56:26.168Z,100612.56
2023-02-01T08:58:54.609Z,100610.25
2023-02-01T09:01:22.924Z,100607.55
2023-02-01T09:03:52.247Z,100611.73
2023-02-01T09:06:20.466Z,100603.81
2023-02-01T09:08:48.835Z,100598.59
2023-02-01T09:11:20.563Z,100596.20
2023-02-01T09:13:49.935Z,100600.36
2023-02-01T09:16:18.424Z,100594.92
2023-02-01T09:18:56.153Z,100592.14
2023-02-01T09:21:35.777Z,100593.65
2023-02-01T09:24:05.343Z,100588.62
2023-02-01T09:26:34.167Z,100588.41
2023-02-01T09:29:02.515Z,100577.95
2023-02-01T09:31:31.668Z,100568.52
2023-02-01T09:34:00.595Z,100563.50
2023-02-01T09:36:30.923Z,100563.88
2023-02-01T09:39:01.129Z,100564.42
2023-02-01T09:41:54.320Z,100562.64
2023-02-01T09:44:47.763Z,100563.67
2023-02-01T09:47:21.220Z,100557.98
2023-02-01T09:50:04.794Z,100548.59
2023-02-01T09:52:47.096Z,100548.45
2023-02-01T09:55:24.951Z,100553.35
2023-02-01T09:57:59.315Z,100553.64
2023-02-01T10:00:33.137Z,100547.30
2023-02-01T10:03:01.726Z,100552.05
2023-02-01T10:05:46.060Z,100553.52
2023-02-01T10:08:20.855Z,100558.02
2023-02-01T10:10:50.918Z,100555.07
2023-02-01T10:13:27.684Z,100551.56
2023-02-01T10:16:32.714Z,100551.76
2023-02-01T10:19:39.415Z,100543.90
2023-02-01T10:22:13.979Z,100541.77
2023-02-01T10:24:47.204Z,100533.33
2023-02-01T10:27:22.364Z,100529.73
2023-02-01T10:30:01.793Z,100526.72
2023-02-01T10:32:54.927Z,100521.13
2023-02-01T10:35:32.283Z,100518.83
2023-02-01T10:38:06.068Z,100511.92
2023-02-01T10:40:34.841Z,100511.74
2023-02-01T10:43:04.240Z,100511.03
2023-02-01T10:45:34.465Z,100504.20
2023-02-01T10:48:05.272Z,100503.70
2023-02-01T10:50:50.269Z,100503.13
2023-02-01T10:53:43.996Z,100503.59
2023-02-01T10:56:14.514Z,100497.48
2023-02-01T10:58:49.713Z,100504.00
2023-02-01T11:01:40.677Z,100499.14
2023-02-01T11:04:14.701Z,100495.27
2023-02-01T11:06:47.582Z,100492.50
2023-02-01T11:09:15.899Z,100493.51
2023-02-01T11:11:50.222Z,100489.77
2023-02-01T11:14:35.689Z,100484.44
2023-02-01T11:17:25.906Z,100480.00
2023-02-01T11:20:00.124Z,100473.83
2023-02-01T11:22:30.504Z,100473.94
2023-02-01T11:25:02.436Z,100471.48
2023-02-01T11:27:30.764Z,100471.99
2023-02-01T11:30:03.291Z,100469.00
2023-02-01T11:32:32.542Z,100469.27
2023-02-01T11:35:06.776Z,100466.69
2023-02-01T11:37:39.924Z,100458.27
2023-02-01T11:40:37.817Z,100460.54
2023-02-01T11:43:26.677Z,100456.52
2023-02-01T11:45:59.052Z,100457.23
2023-02-01T11:48:30.215Z,100453.04
2023-02-01T11:51:34.307Z,100450.91
2023-02-01T11:54:14.261Z,100444.27
2023-02-01T11:56:43.359Z,100439.69
2023-02-01T11:59:57.157Z,100439.34
2023-02-01T12:03:07.805Z,100437.33
2023-02-01T12:05:43.219Z,100431.30
2023-02-01T12:08:36.376Z,100432.30
2023-02-01T12:11:23.292Z,100426.83
2023-02-01T12:14:07.135Z,100422.09
2023-02-01T12:17:13.091Z,100421.08
2023-02-01T12:20:12.610Z,100422.88
2023-02-01T12:23:00.744Z,100416.17
2023-02-01T12:26:19.570Z,100418.61
2023-02-01T12:29:05.427Z,100415.96
2023-02-01T12:31:58.689Z,100415.70
2023-02-01T12:34:45.672Z,100411.02
2023-02-01T12:37:29.318Z,100411.86
2023-02-01T12:40:09.488Z,100418.32
2023-02-01T12:42:43.091Z,100418.77
2023-02-01T12:45:31.904Z,100421.07
2023-02-01T12:48:34.506Z,100423.38
2023-02-01T12:51:16.857Z,100420.15
2023-02-01T12:53:51.751Z,100422.49
2023-02-01T12:56:36.540Z,100426.39
2023-02-01T12:59:13.077Z,100429.47
2023-02-01T13:01:52.110Z,100431.77
2023-02-01T13:04:56.942Z,100430.77
2023-02-01T13:07:49.899Z,100430.61
2023-02-01T13:10:40.001Z,100429.63
2023-02-01T13:13:30.382Z,100429.39
2023-02-01T13:16:28.216Z,100426.77
2023-02-01T13:19:14.141Z,100432.88
2023-02-01T13:21:48.045Z,100432.27
2023-02-01T13:24:44.006Z,100437.98
2023-02-01T13:27:17.061Z,100441.60
2023-02-01T13:30:02.539Z,100440.73
2023-02-01T13:33:51.529Z,100436.23
2023-02-01T13:36:22.451Z,100432.75
2023-02-01T13:39:16.432Z,100435.05
2023-02-01T13:42:22.933Z,100435.98
2023-02-01T13:44:57.425Z,100434.30
2023-02-01T13:47:35.124Z,100436.91
2023-02-01T13:50:13.436Z,100434.95
2023-02-01T13:52:45.848Z,100433.67
2023-02-01T13:55:13.952Z,100427.27
2023-02-01T13:57:46.075Z,100432.85
2023-02-01T14:00:37.656Z,100431.98
2023-02-01T14:03:06.167Z,100431.51
2023-02-01T14:05:37.508Z,100427.70
2023-02-01T14:08:05.995Z,100429.96
2023-02-01T14:10:50.275Z,100432.05
2023-02-01T14:13:41.349Z,100428.21
2023-02-01T14:16:17.857Z,100428.82
2023-02-01T14:18:48.618Z,100430.31
2023-02-01T14:21:22.860Z,100432.30
2023-02-01T14:23:57.817Z,100432.00
2023-02-01T14:26:27.683Z,100430.15
2023-02-01T14:29:01.227Z,100425.52
2023-02-01T14:31:32.978Z,100423.42
2023-02-01T14:34:12.109Z,100419.62
2023-02-01T14:36:48.576Z,100412.02
2023-02-01T14:39:32.213Z,100413.07
2023-02-01T14:42:05.536Z,100411.63
2023-02-01T14:44:37.157Z,100413.48
2023-02-01T14:47:25.958Z,100416.32
2023-02-01T14:50:27.889Z,100416.52
2023-02-01T14:53:11.418Z,100417.86
2023-02-01T14:56:10.928Z,100417.84
2023-02-01T14:58:53.650Z,100424.17
2023-02-01T15:01:25.152Z,100419.16
2023-02-01T15:03:59.964Z,100423.16
2023-02-01T15:06:39.678Z,100420.64
2023-02-01T15:09:10.612Z,100418.36
2023-02-01T15:11:58.059Z,100419.17
2023-02-01T15:14:32.200Z,100416.27
2023-02-01T15:17:01.163Z,100418.96
2023-02-01T15:19:34.034Z,100412.15
2023-02-01T15:22:02.407Z,100414.20
2023-02-01T15:24:32.426Z,100419.38
2023-02-01T15:27:06.551Z,100413.30
2023-02-01T15:29:35.128Z,100417.84
2023-02-01T15:32:03.796Z,100417.61
2023-02-01T15:35:01.882Z,100416.37
2023-02-01T15:37:32.273Z,100418.04
2023-02-01T15:40:20.604Z,100420.45
2023-02-01T15:43:00.506Z,100416.39
2023-02-01T15:45:33.192Z,100421.84
2023-02-01T15:48:01.594Z,100425.64
2023-02-01T15:50:32.519Z,100427.02
2023-02-01T15:53:01.197Z,100431.97
2023-02-01T15:55:38.394Z,100431.85
2023-02-01T15:58:18.540Z,100435.01
2023-02-01T16:00:51.928Z,100442.90
2023-02-01T16:03:40.584Z,100437.73
2023-02-01T16:06:28.828Z,100439.58
2023-02-01T16:09:19.184Z,100438.91
2023-02-01T16:11:56.339Z,100441.39
2023-02-01T16:14:25.506Z,100438.44
2023-02-01T16:16:56.567Z,100441.70
2023-02-01T16:19:29.289Z,100441.86
2023-02-01T16:21:59.549Z,100444.37
2023-02-01T16:24:28.829Z,100441.84
2023-02-01T16:26:57.343Z,100440.77
2023-02-01T16:29:25.837Z,100440.27
2023-02-01T16:31:54.241Z,100437.06
2023-02-01T16:34:22.606Z,100434.11
2023-02-01T16:36:57.978Z,100434.23
2023-02-01T16:39:28.826Z,100442.23
2023-02-01T16:41:58.323Z,100443.84
2023-02-01T16:44:28.070Z,100446.09
2023-02-01T16:46:56.553Z,100445.73
2023-02-01T16:49:25.871Z,100444.45
2023-02-01T16:51:59.804Z,100444.63
2023-02-01T16:54:28.251Z,100441.92
2023-02-01T16:56:56.742Z,100444.16
2023-02-01T16:59:25.311Z,100440.51
2023-02-01T17:01:53.484Z,100441.66
2023-02-01T17:04:22.106Z,100443.88
2023-02-01T17:06:50.775Z,100444.23
2023-02-01T17:09:18.980Z,100444.34
2023-02-01T17:11:47.512Z,100441.28
2023-02-01T17:14:22.528Z,100444.60
2023-02-01T17:16:51.758Z,100440.49
2023-02-01T17:19:24.363Z,100445.38
2023-02-01T17:21:56.783Z,100448.67
2023-02-01T17:24:46.578Z,100450.02
2023-02-01T17:27:18.476Z,100452.27
2023-02-01T17:29:48.520Z,100450.59
2023-02-01T17:32:23.600Z,100450.10
2023-02-01T17:34:52.708Z,100449.02
2023-02-01T17:37:28.389Z,100448.29
2023-02-01T17:39:57.172Z,100443.88
2023-02-01T17:42:27.883Z,100444.00
2023-02-01T17:45:12.525Z,100441.35
2023-02-01T17:47:41.006Z,100442.23
2023-02-01T17:50:10.212Z,100441.08
2023-02-01T17:52:38.378Z,100451.20
2023-02-01T17:55:19.505Z,100452.94
2023-02-01T17:57:48.345Z,100455.93
2023-02-01T18:00:18.303Z,100454.92
2023-02-01T18:02:46.733Z,100458.83
2023-02-01T18:05:41.193Z,100455.23
2023-02-01T18:08:09.617Z,100463.22
2023-02-01T18:10:37.685Z,100466.48
2023-02-01T18:13:06.271Z,100466.89
2023-02-01T18:15:34.960Z,100461.30
2023-02-01T18:18:03.288Z,100455.64
2023-02-01T18:20:32.125Z,100452.27
2023-02-01T18:23:01.219Z,100451.50
2023-02-01T18:25:34.253Z,100453.16
2023-02-01T18:28:03.110Z,100455.50
2023-02-01T18:30:34.486Z,100452.80
2023-02-01T18:33:03.136Z,100444.27
2023-02-01T18:35:32.887Z,100449.50
2023-02-01T18:38:01.273Z,100448.54
2023-02-01T18:40:41.788Z,100444.15
2023-02-01T18:43:12.826Z,100448.48
2023-02-01T18:45:44.889Z,100451.29
2023-02-01T18:48:15.118Z,100456.94
2023-02-01T18:50:45.040Z,100458.77
2023-02-01T18:53:21.880Z,100454.34
2023-02-01T18:55:50.904Z,100460.66
2023-02-01T18:58:19.618Z,100468.61
2023-02-01T19:00:48.427Z,100479.22
2023-02-01T19:03:18.549Z,100477.45
2023-02-01T19:05:48.392Z,100475.58
2023-02-01T19:08:16.690Z,100478.72
2023-02-01T19:10:44.979Z,100480.58
2023-02-01T19:13:13.674Z,100482.10
2023-02-01T19:15:43.917Z,100482.13
2023-02-01T19:18:12.617Z,100480.07
2023-02-01T19:20:45.253Z,100475.52
2023-02-01T19:23:15.964Z,100483.03
2023-02-01T19:25:46.161Z,100485.22
2023-02-01T19:28:16.017Z,100485.42
2023-02-01T19:30:45.046Z,100478.08
2023-02-01T19:33:14.205Z,100470.09
2023-02-01T19:35:42.587Z,100463.16
2023-02-01T19:38:11.577Z,100460.91
2023-02-01T19:40:40.979Z,100454.57
2023-02-01T19:43:09.255Z,100454.71
2023-02-01T19:45:37.634Z,100450.73
2023-02-01T19:48:07.914Z,100451.41
2023-02-01T19:50:36.352Z,100447.67
2023-02-01T19:53:05.232Z,100447.27
2023-02-01T19:55:33.921Z,100452.16
2023-02-01T19:58:02.704Z,100448.20
2023-02-01T20:00:31.449Z,100440.85
2023-02-01T20:02:59.887Z,100436.39
2023-02-01T20:05:28.414Z,100437.73
2023-02-01T20:07:56.593Z,100440.74
2023-02-01T20:10:25.077Z,100441.92
2023-02-01T20:12:53.560Z,100447.39
2023-02-01T20:15:25.072Z,100444.33
2023-02-01T20:17:53.803Z,100443.30
2023-02-01T20:20:24.435Z,100443.77
2023-02-01T20:22:53.455Z,100443.84
2023-02-01T20:25:23.008Z,100439.31
2023-02-01T20:27:53.122Z,100442.54
2023-02-01T20:30:22.511Z,100443.96
2023-02-01T20:32:51.865Z,100448.36
2023-02-01T20:35:20.510Z,100449.77
2023-02-01T20:37:49.491Z,100443.48
2023-02-01T20:40:17.863Z,100440.55
2023-02-01T20:42:46.559Z,100439.48
2023-02-01T20:45:15.150Z,100434.85
2023-02-01T20:47:43.696Z,100438.54
2023-02-01T20:50:12.517Z,100439.97
2023-02-01T20:52:40.710Z,100439.58
2023-02-01T20:55:09.797Z,100435.90
2023-02-01T20:57:38.290Z,100439.34
2023-02-01T21:00:10.456Z,100438.83
2023-02-01T21:02:39.030Z,100438.35
2023-02-01T21:05:08.132Z,100437.48
2023-02-01T21:07:38.040Z,100442.15
2023-02-01T21:10:07.869Z,100437.52
2023-02-01T21:12:36.539Z,100436.27
2023-02-01T21:15:05.916Z,100433.73
2023-02-01T21:17:34.219Z,100434.89
2023-02-01T21:20:02.706Z,100433.21
2023-02-01T21:22:31.187Z,100430.30
2023-02-01T21:25:01.682Z,100428.66
2023-02-01T21:27:30.405Z,100431.02
2023-02-01T21:29:58.683Z,100429.11
2023-02-01T21:32:27.163Z,100434.11
2023-02-01T21:34:55.538Z,100431.59
2023-02-01T21:37:25.803Z,100433.58
2023-02-01T21:39:54.157Z,100430.80
2023-02-01T21:42:24.827Z,100427.34
2023-02-01T21:44:54.079Z,100426.52
2023-02-01T21:47:25.575Z,100423.94
2023-02-01T21:49:54.519Z,100423.58
2023-02-01T21:52:23.413Z,100422.44
2023-02-01T21:54:59.739Z,100422.77
2023-02-01T21:57:29.706Z,100423.77
2023-02-01T21:59:59.076Z,100418.17
2023-02-01T22:02:28.187Z,100413.31
2023-02-01T22:04:57.899Z,100411.36
2023-02-01T22:07:26.386Z,100410.54
2023-02-01T22:09:54.873Z,100413.21
2023-02-01T22:12:23.549Z,100411.34
2023-02-01T22:14:51.936Z,100414.54
2023-02-01T22:17:20.239Z,100415.98
2023-02-01T22:19:48.994Z,100410.44
2023-02-01T22:22:17.272Z,100411.60
2023-02-01T22:24:45.857Z,100408.96
2023-02-01T22:27:14.769Z,100403.33
2023-02-01T22:29:44.035Z,100397.05
2023-02-01T22:32:14.185Z,100393.52
2023-02-01T22:34:42.583Z,100395.21
2023-02-01T22:37:12.081Z,100394.04
2023-02-01T22:39:41.343Z,100394.05
2023-02-01T22:42:09.935Z,100391.27
2023-02-01T22:44:39.074Z,100384.79
2023-02-01T22:47:09.352Z,100381.61
2023-02-01T22:49:37.821Z,100392.49
2023-02-01T22:52:06.094Z,100387.84
2023-02-01T22:54:34.580Z,100385.41
2023-02-01T22:57:03.669Z,100378.44
2023-02-01T22:59:32.048Z,100373.89
2023-02-01T23:02:01.269Z,100375.70
2023-02-01T23:04:29.624Z,100372.88
2023-02-01T23:06:57.997Z,100377.76
2023-02-01T23:09:26.580Z,100382.23
2023-02-01T23:11:55.386Z,100379.95
2023-02-01T23:14:24.056Z,100380.59
2023-02-01T23:16:52.233Z,100380.48
2023-02-01T23:19:21.226Z,100378.06
2023-02-01T23:21:49.822Z,100376.41
2023-02-01T23:24:18.293Z,100375.98
2023-02-01T23:26:46.619Z,100376.05
2023-02-01T23:29:18.223Z,100377.38
2023-02-01T23:31:46.428Z,100383.54
2023-02-01T23:34:15.074Z,100381.77
2023-02-01T23:36:43.560Z,100383.30
2023-02-01T23:39:12.049Z,100375.83
2023-02-01T23:41:40.327Z,100383.13
2023-02-01T23:44:09.215Z,100383.04
2023-02-01T23:46:40.309Z,100381.34
2023-02-01T23:49:09.752Z,100383.52
2023-02-01T23:51:38.235Z,100393.56
2023-02-01T23:54:08.517Z,100398.03
2023-02-01T23:56:41.569Z,100404.79
2023-02-01T23:59:14.270Z,100407.00
